createdAt,value
2018-12-13T00:00:57.143Z,1018.99
2018-12-13T00:02:06.052Z,1018.95
2018-12-13T00:03:14.723Z,1018.95
2018-12-13T00:04:23.383Z,1018.94
2018-12-13T00:05:32.058Z,1018.91
2018-12-13T00:06:40.711Z,1018.91
2018-12-13T00:07:49.388Z,1018.91
2018-12-13T00:08:58.049Z,1018.9
2018-12-13T00:10:06.727Z,1018.88
2018-12-13T00:11:15.446Z,1018.87
2018-12-13T00:12:24.108Z,1018.9
2018-12-13T00:13:32.782Z,1018.89
2018-12-13T00:14:41.457Z,1018.87
2018-12-13T00:15:50.116Z,1018.88
2018-12-13T00:16:58.778Z,1018.88
2018-12-13T00:18:07.451Z,1018.91
2018-12-13T00:19:16.123Z,1018.95
2018-12-13T00:20:24.796Z,1018.9
2018-12-13T00:21:33.458Z,1018.93
2018-12-13T00:22:42.195Z,1018.96
2018-12-13T00:23:50.850Z,1018.93
2018-12-13T00:24:59.522Z,1018.92
2018-12-13T00:26:08.185Z,1018.95
2018-12-13T00:27:16.855Z,1018.93
2018-12-13T00:28:25.517Z,1018.98
2018-12-13T00:29:34.193Z,1018.94
2018-12-13T00:30:42.852Z,1018.93
2018-12-13T00:31:51.518Z,1018.89
2018-12-13T00:33:00.177Z,1018.94
2018-12-13T00:34:08.842Z,1018.97
2018-12-13T00:35:17.516Z,1018.95
2018-12-13T00:36:26.440Z,1018.92
2018-12-13T00:37:39.932Z,1018.9
2018-12-13T00:38:48.596Z,1018.93
2018-12-13T00:39:57.267Z,1018.92
2018-12-13T00:41:05.934Z,1018.87
2018-12-13T00:42:14.601Z,1018.86
2018-12-13T00:43:23.272Z,1018.85
2018-12-13T00:44:32.008Z,1018.83
2018-12-13T00:45:40.679Z,1018.85
2018-12-13T00:46:49.358Z,1018.84
2018-12-13T00:47:58.025Z,1018.81
2018-12-13T00:49:06.697Z,1018.85
2018-12-13T00:50:15.356Z,1018.82
2018-12-13T00:51:24.028Z,1018.85
2018-12-13T00:52:32.949Z,1018.78
2018-12-13T00:53:41.880Z,1018.76
2018-12-13T00:54:50.547Z,1018.75
2018-12-13T00:55:59.213Z,1018.75
2018-12-13T00:57:07.882Z,1018.77
2018-12-13T00:58:16.547Z,1018.78
2018-12-13T00:59:25.213Z,1018.77
2018-12-13T01:00:33.877Z,1018.76
2018-12-13T01:01:42.795Z,1018.72
2018-12-13T01:02:51.465Z,1018.7
2018-12-13T01:04:00.126Z,1018.75
2018-12-13T01:05:08.790Z,1018.72
2018-12-13T01:06:17.459Z,1018.7
2018-12-13T01:07:26.127Z,1018.72
2018-12-13T01:08:34.807Z,1018.72
2018-12-13T01:09:43.471Z,1018.72
2018-12-13T01:10:52.393Z,1018.69
2018-12-13T01:12:01.134Z,1018.69
2018-12-13T01:13:09.891Z,1018.72
2018-12-13T01:14:18.818Z,1018.66
2018-12-13T01:15:27.482Z,1018.69
2018-12-13T01:16:36.145Z,1018.69
2018-12-13T01:17:44.809Z,1018.68
2018-12-13T01:18:53.480Z,1018.66
2018-12-13T01:20:02.145Z,1018.67
2018-12-13T01:21:10.814Z,1018.64
2018-12-13T01:22:24.956Z,1018.63
2018-12-13T01:23:33.890Z,1018.59
2018-12-13T01:24:42.552Z,1018.57
2018-12-13T01:25:51.272Z,1018.55
2018-12-13T01:26:59.939Z,1018.59
2018-12-13T01:28:08.860Z,1018.56
2018-12-13T01:29:17.534Z,1018.51
2018-12-13T01:30:26.201Z,1018.54
2018-12-13T01:31:34.864Z,1018.53
2018-12-13T01:32:44.054Z,1018.49
2018-12-13T01:33:52.725Z,1018.47
2018-12-13T01:35:01.393Z,1018.5
2018-12-13T01:36:10.069Z,1018.5
2018-12-13T01:37:18.728Z,1018.5
2018-12-13T01:38:27.397Z,1018.47
2018-12-13T01:39:36.059Z,1018.45
2018-12-13T01:40:44.727Z,1018.47
2018-12-13T01:41:53.385Z,1018.48
2018-12-13T01:43:02.059Z,1018.5
2018-12-13T01:44:10.723Z,1018.53
2018-12-13T01:45:19.397Z,1018.5
2018-12-13T01:46:28.321Z,1018.48
2018-12-13T01:47:36.992Z,1018.49
2018-12-13T01:48:45.664Z,1018.5
2018-12-13T01:49:54.333Z,1018.52
2018-12-13T01:51:03.001Z,1018.5
2018-12-13T01:52:11.657Z,1018.49
2018-12-13T01:53:20.345Z,1018.45
2018-12-13T01:54:29.013Z,1018.49
2018-12-13T01:55:37.687Z,1018.44
2018-12-13T01:56:46.354Z,1018.46
2018-12-13T01:57:55.021Z,1018.46
2018-12-13T01:59:03.686Z,1018.41
2018-12-13T02:00:12.359Z,1018.4
2018-12-13T02:01:21.084Z,1018.39
2018-12-13T02:02:29.750Z,1018.45
2018-12-13T02:03:38.413Z,1018.44
2018-12-13T02:04:47.086Z,1018.41
2018-12-13T02:05:55.756Z,1018.39
2018-12-13T02:07:04.418Z,1018.39
2018-12-13T02:08:13.089Z,1018.38
2018-12-13T02:09:22.012Z,1018.38
2018-12-13T02:10:30.946Z,1018.4
2018-12-13T02:11:39.613Z,1018.37
2018-12-13T02:12:48.289Z,1018.36
2018-12-13T02:13:56.949Z,1018.38
2018-12-13T02:15:05.624Z,1018.34
2018-12-13T02:16:14.281Z,1018.33
2018-12-13T02:17:22.951Z,1018.36
2018-12-13T02:18:31.629Z,1018.37
2018-12-13T02:19:40.313Z,1018.34
2018-12-13T02:20:48.975Z,1018.32
2018-12-13T02:21:57.643Z,1018.34
2018-12-13T02:23:06.298Z,1018.31
2018-12-13T02:24:14.981Z,1018.3
2018-12-13T02:25:23.645Z,1018.28
2018-12-13T02:26:32.325Z,1018.28
2018-12-13T02:27:40.993Z,1018.27
2018-12-13T02:28:49.646Z,1018.25
2018-12-13T02:29:58.315Z,1018.27
2018-12-13T02:31:07.515Z,1018.25
2018-12-13T02:32:16.196Z,1018.22
2018-12-13T02:33:24.878Z,1018.23
2018-12-13T02:34:33.807Z,1018.22
2018-12-13T02:35:42.740Z,1018.21
2018-12-13T02:36:51.669Z,1018.24
2018-12-13T02:38:06.327Z,1018.23
2018-12-13T02:39:15.266Z,1018.25
2018-12-13T02:40:23.996Z,1018.23
2018-12-13T02:41:32.658Z,1018.23
2018-12-13T02:42:41.331Z,1018.23
2018-12-13T02:43:50.010Z,1018.21
2018-12-13T02:44:58.685Z,1018.2
2018-12-13T02:46:07.618Z,1018.19
2018-12-13T02:47:16.291Z,1018.16
2018-12-13T02:48:24.969Z,1018.19
2018-12-13T02:49:33.627Z,1018.14
2018-12-13T02:50:42.571Z,1018.19
2018-12-13T02:51:51.232Z,1018.16
2018-12-13T02:52:59.905Z,1018.12
2018-12-13T02:54:08.856Z,1018.08
2018-12-13T02:55:17.533Z,1018.12
2018-12-13T02:56:26.193Z,1018.09
2018-12-13T02:57:34.860Z,1018.09
2018-12-13T02:58:43.533Z,1018.1
2018-12-13T02:59:52.214Z,1018.1
2018-12-13T03:01:00.877Z,1018.07
2018-12-13T03:02:09.548Z,1018.06
2018-12-13T03:03:18.475Z,1018.04
2018-12-13T03:04:27.221Z,1018.03
2018-12-13T03:05:35.905Z,1018.06
2018-12-13T03:06:44.567Z,1018.03
2018-12-13T03:07:53.237Z,1018.02
2018-12-13T03:09:01.922Z,1018.02
2018-12-13T03:10:11.113Z,1018.03
2018-12-13T03:11:19.810Z,1018.03
2018-12-13T03:12:28.494Z,1018.02
2018-12-13T03:13:37.175Z,1018
2018-12-13T03:14:45.858Z,1018.02
2018-12-13T03:15:54.527Z,1018.08
2018-12-13T03:17:03.211Z,1018.1
2018-12-13T03:18:12.131Z,1018.1
2018-12-13T03:19:20.803Z,1018.13
2018-12-13T03:20:29.735Z,1018.09
2018-12-13T03:21:38.404Z,1018.08
2018-12-13T03:22:47.352Z,1018.07
2018-12-13T03:23:56.277Z,1018.09
2018-12-13T03:25:04.945Z,1018.16
2018-12-13T03:26:13.866Z,1018.09
2018-12-13T03:27:22.540Z,1018.04
2018-12-13T03:28:31.197Z,1018.03
2018-12-13T03:29:39.931Z,1018.08
2018-12-13T03:30:49.111Z,1018.02
2018-12-13T03:31:58.133Z,1018.02
2018-12-13T03:33:06.839Z,1017.95
2018-12-13T03:34:15.793Z,1017.93
2018-12-13T03:35:24.722Z,1017.92
2018-12-13T03:36:33.399Z,1017.9
2018-12-13T03:37:42.326Z,1017.91
2018-12-13T03:38:51.013Z,1017.87
2018-12-13T03:39:59.680Z,1017.87
2018-12-13T03:41:08.354Z,1017.84
2018-12-13T03:42:17.037Z,1017.84
2018-12-13T03:43:25.709Z,1017.84
2018-12-13T03:44:34.403Z,1017.82
2018-12-13T03:45:43.061Z,1017.83
2018-12-13T03:46:51.729Z,1017.85
2018-12-13T03:48:00.398Z,1017.84
2018-12-13T03:49:09.124Z,1017.82
2018-12-13T03:50:17.791Z,1017.86
2018-12-13T03:51:26.467Z,1017.82
2018-12-13T03:52:35.402Z,1017.77
2018-12-13T03:53:44.082Z,1017.76
2018-12-13T03:54:52.749Z,1017.76
2018-12-13T03:56:01.417Z,1017.8
2018-12-13T03:57:10.339Z,1017.76
2018-12-13T03:58:19.025Z,1017.74
2018-12-13T03:59:27.704Z,1017.73
2018-12-13T04:00:36.366Z,1017.71
2018-12-13T04:01:45.289Z,1017.76
2018-12-13T04:02:53.958Z,1017.72
2018-12-13T04:04:02.902Z,1017.72
2018-12-13T04:05:11.841Z,1017.75
2018-12-13T04:06:21.028Z,1017.74
2018-12-13T04:07:29.691Z,1017.75
2018-12-13T04:08:38.361Z,1017.7
2018-12-13T04:09:47.300Z,1017.73
2018-12-13T04:10:55.978Z,1017.76
2018-12-13T04:12:05.186Z,1017.74
2018-12-13T04:13:13.859Z,1017.72
2018-12-13T04:14:22.818Z,1017.71
2018-12-13T04:15:31.749Z,1017.69
2018-12-13T04:16:40.676Z,1017.7
2018-12-13T04:17:49.343Z,1017.67
2018-12-13T04:18:58.281Z,1017.63
2018-12-13T04:20:07.219Z,1017.66
2018-12-13T04:21:15.885Z,1017.63
2018-12-13T04:22:24.826Z,1017.64
2018-12-13T04:23:33.515Z,1017.62
2018-12-13T04:24:42.710Z,1017.62
2018-12-13T04:25:51.382Z,1017.62
2018-12-13T04:27:00.301Z,1017.61
2018-12-13T04:28:09.245Z,1017.66
2018-12-13T04:29:17.911Z,1017.62
2018-12-13T04:30:26.870Z,1017.65
2018-12-13T04:31:35.532Z,1017.65
2018-12-13T04:32:44.464Z,1017.67
2018-12-13T04:33:53.161Z,1017.67
2018-12-13T04:35:02.100Z,1017.64
2018-12-13T04:36:11.026Z,1017.64
2018-12-13T04:37:20.105Z,1017.62
2018-12-13T04:38:35.380Z,1017.6
2018-12-13T04:39:44.043Z,1017.6
2018-12-13T04:40:52.737Z,1017.57
2018-12-13T04:42:01.394Z,1017.61
2018-12-13T04:43:10.062Z,1017.61
2018-12-13T04:44:18.735Z,1017.56
2018-12-13T04:45:27.411Z,1017.61
2018-12-13T04:46:36.065Z,1017.59
2018-12-13T04:47:44.739Z,1017.58
2018-12-13T04:48:53.404Z,1017.56
2018-12-13T04:50:02.079Z,1017.56
2018-12-13T04:51:11.019Z,1017.58
2018-12-13T04:52:19.690Z,1017.6
2018-12-13T04:53:28.614Z,1017.57
2018-12-13T04:54:37.278Z,1017.58
2018-12-13T04:55:46.467Z,1017.55
2018-12-13T04:56:55.130Z,1017.6
2018-12-13T04:58:03.795Z,1017.58
2018-12-13T04:59:12.449Z,1017.57
2018-12-13T05:00:21.182Z,1017.58
2018-12-13T05:01:29.842Z,1017.59
2018-12-13T05:02:38.514Z,1017.55
2018-12-13T05:03:47.172Z,1017.52
2018-12-13T05:04:55.841Z,1017.52
2018-12-13T05:06:04.501Z,1017.53
2018-12-13T05:07:13.166Z,1017.53
2018-12-13T05:08:21.833Z,1017.54
2018-12-13T05:09:30.751Z,1017.53
2018-12-13T05:10:39.419Z,1017.5
2018-12-13T05:11:48.082Z,1017.49
2018-12-13T05:12:56.746Z,1017.48
2018-12-13T05:14:05.396Z,1017.54
2018-12-13T05:15:14.063Z,1017.46
2018-12-13T05:16:22.718Z,1017.45
2018-12-13T05:17:31.394Z,1017.47
2018-12-13T05:18:40.057Z,1017.42
2018-12-13T05:19:48.732Z,1017.39
2018-12-13T05:20:57.394Z,1017.43
2018-12-13T05:22:06.068Z,1017.39
2018-12-13T05:23:14.732Z,1017.37
2018-12-13T05:24:23.402Z,1017.42
2018-12-13T05:25:32.066Z,1017.35
2018-12-13T05:26:40.743Z,1017.33
2018-12-13T05:27:49.471Z,1017.35
2018-12-13T05:28:58.136Z,1017.36
2018-12-13T05:30:07.053Z,1017.34
2018-12-13T05:31:15.712Z,1017.33
2018-12-13T05:32:24.388Z,1017.28
2018-12-13T05:33:33.053Z,1017.31
2018-12-13T05:34:41.727Z,1017.32
2018-12-13T05:35:50.416Z,1017.29
2018-12-13T05:36:59.086Z,1017.26
2018-12-13T05:38:07.750Z,1017.3
2018-12-13T05:39:16.422Z,1017.28
2018-12-13T05:40:25.332Z,1017.25
2018-12-13T05:41:34.000Z,1017.22
2018-12-13T05:42:42.694Z,1017.18
2018-12-13T05:43:51.363Z,1017.16
2018-12-13T05:45:00.020Z,1017.2
2018-12-13T05:46:08.689Z,1017.18
2018-12-13T05:47:17.361Z,1017.26
2018-12-13T05:48:26.031Z,1017.29
2018-12-13T05:49:34.955Z,1017.23
2018-12-13T05:50:43.613Z,1017.23
2018-12-13T05:51:52.272Z,1017.26
2018-12-13T05:53:00.931Z,1017.24
2018-12-13T05:54:09.855Z,1017.22
2018-12-13T05:55:18.522Z,1017.24
2018-12-13T05:56:27.191Z,1017.25
2018-12-13T05:57:35.853Z,1017.24
2018-12-13T05:58:44.521Z,1017.24
2018-12-13T05:59:53.442Z,1017.29
2018-12-13T06:01:02.118Z,1017.29
2018-12-13T06:02:10.812Z,1017.34
2018-12-13T06:03:19.476Z,1017.31
2018-12-13T06:04:28.140Z,1017.34
2018-12-13T06:05:36.801Z,1017.36
2018-12-13T06:06:45.464Z,1017.34
2018-12-13T06:07:55.095Z,1017.34
2018-12-13T06:09:03.894Z,1017.35
2018-12-13T06:10:12.558Z,1017.34
2018-12-13T06:11:21.226Z,1017.33
2018-12-13T06:12:29.919Z,1017.34
2018-12-13T06:13:38.592Z,1017.32
2018-12-13T06:14:47.254Z,1017.37
2018-12-13T06:15:55.920Z,1017.41
2018-12-13T06:17:04.578Z,1017.4
2018-12-13T06:18:13.248Z,1017.42
2018-12-13T06:19:26.647Z,1017.4
2018-12-13T06:20:35.507Z,1017.41
2018-12-13T06:21:44.169Z,1017.43
2018-12-13T06:22:52.840Z,1017.4
2018-12-13T06:24:01.505Z,1017.41
2018-12-13T06:25:10.174Z,1017.44
2018-12-13T06:26:19.155Z,1017.44
2018-12-13T06:27:27.820Z,1017.41
2018-12-13T06:28:36.497Z,1017.45
2018-12-13T06:29:48.790Z,1017.42
2018-12-13T06:31:09.926Z,1017.45
2018-12-13T06:32:18.591Z,1017.44
2018-12-13T06:33:28.270Z,1017.44
2018-12-13T06:34:37.272Z,1017.46
2018-12-13T06:35:45.930Z,1017.48
2018-12-13T06:36:54.598Z,1017.49
2018-12-13T06:38:03.265Z,1017.49
2018-12-13T06:39:11.935Z,1017.52
2018-12-13T06:40:20.595Z,1017.51
2018-12-13T06:41:29.260Z,1017.56
2018-12-13T06:42:37.993Z,1017.55
2018-12-13T06:43:46.660Z,1017.56
2018-12-13T06:44:56.776Z,1017.61
2018-12-13T06:46:05.441Z,1017.56
2018-12-13T06:47:14.106Z,1017.56
2018-12-13T06:48:22.774Z,1017.54
2018-12-13T06:49:31.445Z,1017.58
2018-12-13T06:50:40.359Z,1017.56
2018-12-13T06:51:49.022Z,1017.55
2018-12-13T06:52:57.696Z,1017.52
2018-12-13T06:54:06.362Z,1017.55
2018-12-13T06:55:15.093Z,1017.51
2018-12-13T06:56:23.757Z,1017.53
2018-12-13T06:57:32.412Z,1017.51
2018-12-13T06:58:41.078Z,1017.5
2018-12-13T06:59:50.027Z,1017.5
2018-12-13T07:00:58.701Z,1017.51
2018-12-13T07:02:07.637Z,1017.54
2018-12-13T07:03:16.304Z,1017.5
2018-12-13T07:04:24.975Z,1017.51
2018-12-13T07:05:33.639Z,1017.53
2018-12-13T07:06:42.304Z,1017.54
2018-12-13T07:07:50.973Z,1017.51
2018-12-13T07:08:59.640Z,1017.55
2018-12-13T07:10:08.321Z,1017.54
2018-12-13T07:11:16.977Z,1017.53
2018-12-13T07:12:25.637Z,1017.54
2018-12-13T07:13:34.337Z,1017.52
2018-12-13T07:14:43.047Z,1017.53
2018-12-13T07:15:51.712Z,1017.54
2018-12-13T07:17:00.724Z,1017.55
2018-12-13T07:18:09.394Z,1017.61
2018-12-13T07:19:18.055Z,1017.58
2018-12-13T07:20:26.719Z,1017.58
2018-12-13T07:21:35.390Z,1017.6
2018-12-13T07:22:44.049Z,1017.65
2018-12-13T07:23:52.714Z,1017.66
2018-12-13T07:25:01.377Z,1017.65
2018-12-13T07:26:10.057Z,1017.63
2018-12-13T07:27:18.986Z,1017.66
2018-12-13T07:28:29.040Z,1017.65
2018-12-13T07:29:37.815Z,1017.67
2018-12-13T07:30:46.490Z,1017.62
2018-12-13T07:31:55.405Z,1017.68
2018-12-13T07:33:04.391Z,1017.68
2018-12-13T07:34:13.049Z,1017.68
2018-12-13T07:35:21.721Z,1017.67
2018-12-13T07:36:30.392Z,1017.68
2018-12-13T07:37:39.057Z,1017.63
2018-12-13T07:38:47.730Z,1017.65
2018-12-13T07:39:56.417Z,1017.63
2018-12-13T07:41:05.087Z,1017.65
2018-12-13T07:42:13.748Z,1017.64
2018-12-13T07:43:22.421Z,1017.67
2018-12-13T07:44:31.081Z,1017.69
2018-12-13T07:45:40.195Z,1017.67
2018-12-13T07:46:48.866Z,1017.63
2018-12-13T07:47:57.820Z,1017.65
2018-12-13T07:49:06.483Z,1017.7
2018-12-13T07:50:15.158Z,1017.71
2018-12-13T07:51:23.857Z,1017.73
2018-12-13T07:52:32.779Z,1017.7
2018-12-13T07:53:41.432Z,1017.73
2018-12-13T07:54:50.098Z,1017.7
2018-12-13T07:55:59.278Z,1017.71
2018-12-13T07:57:07.965Z,1017.66
2018-12-13T07:58:16.639Z,1017.68
2018-12-13T07:59:25.734Z,1017.68
2018-12-13T08:00:34.650Z,1017.69
2018-12-13T08:01:43.329Z,1017.73
2018-12-13T08:02:52.007Z,1017.7
2018-12-13T08:04:00.672Z,1017.66
2018-12-13T08:05:09.609Z,1017.7
2018-12-13T08:06:18.274Z,1017.67
2018-12-13T08:07:27.230Z,1017.65
2018-12-13T08:08:35.890Z,1017.63
2018-12-13T08:09:44.562Z,1017.65
2018-12-13T08:10:53.227Z,1017.61
2018-12-13T08:12:02.097Z,1017.61
2018-12-13T08:13:10.770Z,1017.65
2018-12-13T08:14:19.681Z,1017.68
2018-12-13T08:15:28.343Z,1017.67
2018-12-13T08:16:37.019Z,1017.65
2018-12-13T08:17:46.607Z,1017.65
2018-12-13T08:18:55.489Z,1017.66
2018-12-13T08:20:04.412Z,1017.63
2018-12-13T08:21:13.068Z,1017.66
2018-12-13T08:22:21.741Z,1017.6
2018-12-13T08:23:30.409Z,1017.59
2018-12-13T08:24:39.076Z,1017.57
2018-12-13T08:25:47.731Z,1017.58
2018-12-13T08:26:56.406Z,1017.55
2018-12-13T08:28:05.330Z,1017.61
2018-12-13T08:29:14.002Z,1017.56
2018-12-13T08:30:22.678Z,1017.56
2018-12-13T08:31:31.348Z,1017.54
2018-12-13T08:32:40.039Z,1017.56
2018-12-13T08:33:49.024Z,1017.59
2018-12-13T08:34:57.712Z,1017.54
2018-12-13T08:36:06.650Z,1017.56
2018-12-13T08:37:15.320Z,1017.57
2018-12-13T08:38:27.169Z,1017.59
2018-12-13T08:39:36.324Z,1017.57
2018-12-13T08:40:44.979Z,1017.56
2018-12-13T08:41:53.903Z,1017.58
2018-12-13T08:43:02.574Z,1017.59
2018-12-13T08:44:11.248Z,1017.61
2018-12-13T08:45:19.909Z,1017.62
2018-12-13T08:46:28.879Z,1017.57
2018-12-13T08:47:43.147Z,1017.56
2018-12-13T08:48:51.820Z,1017.54
2018-12-13T08:50:00.754Z,1017.5
2018-12-13T08:51:09.434Z,1017.51
2018-12-13T08:52:18.356Z,1017.5
2018-12-13T08:53:27.023Z,1017.51
2018-12-13T08:54:35.694Z,1017.54
2018-12-13T08:55:44.360Z,1017.56
2018-12-13T08:56:53.030Z,1017.58
2018-12-13T08:58:01.694Z,1017.58
2018-12-13T08:59:10.363Z,1017.62
2018-12-13T09:00:19.035Z,1017.64
2018-12-13T09:01:27.704Z,1017.64
2018-12-13T09:02:36.615Z,1017.67
2018-12-13T09:03:45.285Z,1017.66
2018-12-13T09:04:53.954Z,1017.63
2018-12-13T09:06:02.626Z,1017.65
2018-12-13T09:07:11.545Z,1017.64
2018-12-13T09:08:20.230Z,1017.68
2018-12-13T09:09:36.146Z,1017.68
2018-12-13T09:10:44.816Z,1017.7
2018-12-13T09:11:53.487Z,1017.66
2018-12-13T09:13:02.145Z,1017.66
2018-12-13T09:14:10.816Z,1017.66
2018-12-13T09:15:19.853Z,1017.7
2018-12-13T09:16:31.398Z,1017.72
2018-12-13T09:17:40.337Z,1017.72
2018-12-13T09:18:49.001Z,1017.7
2018-12-13T09:19:57.665Z,1017.69
2018-12-13T09:21:06.590Z,1017.69
2018-12-13T09:22:15.504Z,1017.67
2018-12-13T09:23:24.431Z,1017.68
2018-12-13T09:24:33.094Z,1017.67
2018-12-13T09:25:41.766Z,1017.69
2018-12-13T09:26:50.428Z,1017.71
2018-12-13T09:27:59.091Z,1017.69
2018-12-13T09:29:07.770Z,1017.72
2018-12-13T09:30:16.437Z,1017.78
2018-12-13T09:31:25.112Z,1017.77
2018-12-13T09:32:34.032Z,1017.77
2018-12-13T09:33:43.868Z,1017.78
2018-12-13T09:34:52.800Z,1017.76
2018-12-13T09:36:01.477Z,1017.78
2018-12-13T09:37:10.393Z,1017.74
2018-12-13T09:38:19.313Z,1017.71
2018-12-13T09:39:27.981Z,1017.76
2018-12-13T09:40:36.918Z,1017.75
2018-12-13T09:41:45.581Z,1017.82
2018-12-13T09:42:54.347Z,1017.78
2018-12-13T09:44:03.267Z,1017.8
2018-12-13T09:45:11.956Z,1017.79
2018-12-13T09:46:20.626Z,1017.83
2018-12-13T09:47:29.302Z,1017.85
2018-12-13T09:48:37.975Z,1017.8
2018-12-13T09:49:46.630Z,1017.79
2018-12-13T09:50:55.298Z,1017.83
2018-12-13T09:52:04.024Z,1017.81
2018-12-13T09:53:12.704Z,1017.78
2018-12-13T09:54:21.363Z,1017.8
2018-12-13T09:55:30.043Z,1017.76
2018-12-13T09:56:38.711Z,1017.74
2018-12-13T09:57:47.394Z,1017.78
2018-12-13T09:58:56.306Z,1017.79
2018-12-13T10:00:04.974Z,1017.75
2018-12-13T10:01:13.638Z,1017.79
2018-12-13T10:02:22.315Z,1017.78
2018-12-13T10:03:31.252Z,1017.8
2018-12-13T10:04:39.929Z,1017.77
2018-12-13T10:05:48.860Z,1017.75
2018-12-13T10:06:57.551Z,1017.72
2018-12-13T10:08:06.268Z,1017.75
2018-12-13T10:09:15.022Z,1017.7
2018-12-13T10:10:23.695Z,1017.66
2018-12-13T10:11:32.610Z,1017.65
2018-12-13T10:12:42.342Z,1017.68
2018-12-13T10:13:51.005Z,1017.67
2018-12-13T10:14:59.932Z,1017.68
2018-12-13T10:16:08.599Z,1017.66
2018-12-13T10:17:17.284Z,1017.67
2018-12-13T10:18:25.952Z,1017.66
2018-12-13T10:19:34.623Z,1017.68
2018-12-13T10:20:43.548Z,1017.68
2018-12-13T10:21:52.286Z,1017.69
2018-12-13T10:23:00.955Z,1017.66
2018-12-13T10:24:09.637Z,1017.71
2018-12-13T10:25:18.617Z,1017.69
2018-12-13T10:26:27.555Z,1017.69
2018-12-13T10:27:36.479Z,1017.72
2018-12-13T10:28:45.151Z,1017.72
2018-12-13T10:29:53.816Z,1017.66
2018-12-13T10:31:02.753Z,1017.7
2018-12-13T10:32:11.416Z,1017.7
2018-12-13T10:33:20.107Z,1017.64
2018-12-13T10:34:28.765Z,1017.66
2018-12-13T10:35:37.445Z,1017.69
2018-12-13T10:36:46.116Z,1017.65
2018-12-13T10:37:54.788Z,1017.61
2018-12-13T10:39:03.448Z,1017.61
2018-12-13T10:40:12.122Z,1017.58
2018-12-13T10:41:20.800Z,1017.57
2018-12-13T10:42:29.927Z,1017.57
2018-12-13T10:43:38.595Z,1017.55
2018-12-13T10:44:47.261Z,1017.53
2018-12-13T10:45:56.193Z,1017.55
2018-12-13T10:47:04.863Z,1017.53
2018-12-13T10:48:13.549Z,1017.5
2018-12-13T10:49:22.212Z,1017.49
2018-12-13T10:50:30.913Z,1017.53
2018-12-13T10:51:39.618Z,1017.47
2018-12-13T10:52:48.572Z,1017.47
2018-12-13T10:53:57.235Z,1017.47
2018-12-13T10:55:05.925Z,1017.44
2018-12-13T10:56:14.587Z,1017.4
2018-12-13T10:57:23.269Z,1017.39
2018-12-13T10:58:31.933Z,1017.4
2018-12-13T10:59:40.600Z,1017.38
2018-12-13T11:00:49.379Z,1017.33
2018-12-13T11:01:58.236Z,1017.35
2018-12-13T11:03:07.165Z,1017.33
2018-12-13T11:04:15.830Z,1017.32
2018-12-13T11:05:24.542Z,1017.35
2018-12-13T11:06:33.211Z,1017.32
2018-12-13T11:07:41.893Z,1017.32
2018-12-13T11:08:50.926Z,1017.3
2018-12-13T11:10:06.387Z,1017.3
2018-12-13T11:11:15.086Z,1017.26
2018-12-13T11:12:23.833Z,1017.21
2018-12-13T11:13:32.757Z,1017.21
2018-12-13T11:14:41.453Z,1017.2
2018-12-13T11:15:50.162Z,1017.2
2018-12-13T11:16:58.856Z,1017.2
2018-12-13T11:18:07.790Z,1017.17
2018-12-13T11:19:16.769Z,1017.17
2018-12-13T11:20:25.775Z,1017.15
2018-12-13T11:21:34.620Z,1017.13
2018-12-13T11:22:43.295Z,1017.14
2018-12-13T11:23:52.066Z,1017.17
2018-12-13T11:25:01.305Z,1017.13
2018-12-13T11:26:10.018Z,1017.12
2018-12-13T11:27:18.692Z,1017.11
2018-12-13T11:28:27.498Z,1017.1
2018-12-13T11:29:36.182Z,1017.14
2018-12-13T11:30:44.854Z,1017.16
2018-12-13T11:31:53.788Z,1017.14
2018-12-13T11:33:02.771Z,1017.14
2018-12-13T11:34:11.445Z,1017.12
2018-12-13T11:35:20.108Z,1017.11
2018-12-13T11:36:28.782Z,1017.08
2018-12-13T11:37:37.527Z,1017.06
2018-12-13T11:38:46.269Z,1017.04
2018-12-13T11:39:54.939Z,1017.03
2018-12-13T11:41:03.638Z,1017
2018-12-13T11:42:12.307Z,1016.99
2018-12-13T11:43:21.054Z,1017.02
2018-12-13T11:44:29.992Z,1017.03
2018-12-13T11:45:38.935Z,1017.02
2018-12-13T11:46:47.648Z,1016.97
2018-12-13T11:47:56.313Z,1016.99
2018-12-13T11:49:04.989Z,1016.98
2018-12-13T11:50:19.126Z,1016.97
2018-12-13T11:51:28.533Z,1016.91
2018-12-13T11:52:37.521Z,1016.97
2018-12-13T11:53:47.339Z,1016.92
2018-12-13T11:54:56.099Z,1016.9
2018-12-13T11:56:05.046Z,1016.85
2018-12-13T11:57:14.293Z,1016.85
2018-12-13T11:58:23.281Z,1016.82
2018-12-13T11:59:31.948Z,1016.79
2018-12-13T12:00:41.273Z,1016.79
2018-12-13T12:01:49.993Z,1016.75
2018-12-13T12:02:58.693Z,1016.72
2018-12-13T12:04:07.383Z,1016.69
2018-12-13T12:05:16.367Z,1016.71
2018-12-13T12:06:25.039Z,1016.68
2018-12-13T12:07:33.740Z,1016.65
2018-12-13T12:08:42.474Z,1016.65
2018-12-13T12:09:51.142Z,1016.65
2018-12-13T12:11:00.527Z,1016.6
2018-12-13T12:12:09.682Z,1016.66
2018-12-13T12:13:18.363Z,1016.59
2018-12-13T12:14:27.290Z,1016.6
2018-12-13T12:15:35.991Z,1016.57
2018-12-13T12:16:44.931Z,1016.51
2018-12-13T12:17:53.626Z,1016.54
2018-12-13T12:19:02.377Z,1016.55
2018-12-13T12:20:11.315Z,1016.52
2018-12-13T12:21:20.208Z,1016.53
2018-12-13T12:22:29.132Z,1016.49
2018-12-13T12:23:37.810Z,1016.53
2018-12-13T12:24:46.488Z,1016.52
2018-12-13T12:25:55.151Z,1016.48
2018-12-13T12:27:03.914Z,1016.43
2018-12-13T12:28:13.106Z,1016.46
2018-12-13T12:29:21.791Z,1016.44
2018-12-13T12:30:30.480Z,1016.42
2018-12-13T12:31:39.314Z,1016.47
2018-12-13T12:32:48.118Z,1016.41
2018-12-13T12:33:57.160Z,1016.45
2018-12-13T12:35:05.943Z,1016.42
2018-12-13T12:36:14.621Z,1016.41
2018-12-13T12:37:23.293Z,1016.42
2018-12-13T12:38:32.208Z,1016.4
2018-12-13T12:39:41.145Z,1016.4
2018-12-13T12:40:49.808Z,1016.37
2018-12-13T12:41:58.478Z,1016.38
2018-12-13T12:43:08.591Z,1016.36
2018-12-13T12:44:17.269Z,1016.39
2018-12-13T12:45:25.935Z,1016.39
2018-12-13T12:46:34.618Z,1016.43
2018-12-13T12:47:43.278Z,1016.4
2018-12-13T12:48:51.950Z,1016.36
2018-12-13T12:50:00.626Z,1016.34
2018-12-13T12:51:09.564Z,1016.36
2018-12-13T12:52:18.238Z,1016.36
2018-12-13T12:53:26.901Z,1016.37
2018-12-13T12:54:35.579Z,1016.37
2018-12-13T12:55:44.240Z,1016.3
2018-12-13T12:56:52.916Z,1016.36
2018-12-13T12:58:01.895Z,1016.33
2018-12-13T12:59:10.565Z,1016.32
2018-12-13T13:00:19.232Z,1016.29
2018-12-13T13:01:27.909Z,1016.34
2018-12-13T13:02:36.572Z,1016.3
2018-12-13T13:03:45.290Z,1016.31
2018-12-13T13:04:53.962Z,1016.34
2018-12-13T13:06:02.900Z,1016.29
2018-12-13T13:07:11.565Z,1016.34
2018-12-13T13:08:20.229Z,1016.33
2018-12-13T13:09:28.895Z,1016.32
2018-12-13T13:10:37.588Z,1016.33
2018-12-13T13:11:46.270Z,1016.27
2018-12-13T13:12:54.931Z,1016.29
2018-12-13T13:14:03.603Z,1016.28
2018-12-13T13:15:12.277Z,1016.3
2018-12-13T13:16:21.222Z,1016.28
2018-12-13T13:17:29.885Z,1016.29
2018-12-13T13:18:39.065Z,1016.24
2018-12-13T13:19:48.081Z,1016.2
2018-12-13T13:20:56.759Z,1016.23
2018-12-13T13:22:05.440Z,1016.22
2018-12-13T13:23:14.113Z,1016.19
2018-12-13T13:24:22.773Z,1016.22
2018-12-13T13:25:31.444Z,1016.22
2018-12-13T13:26:40.110Z,1016.21
2018-12-13T13:27:48.781Z,1016.25
2018-12-13T13:28:57.463Z,1016.19
2018-12-13T13:30:06.126Z,1016.21
2018-12-13T13:31:14.800Z,1016.18
2018-12-13T13:32:23.530Z,1016.2
2018-12-13T13:33:32.198Z,1016.1
2018-12-13T13:34:40.866Z,1016.14
2018-12-13T13:35:49.532Z,1016.15
2018-12-13T13:36:58.199Z,1016.12
2018-12-13T13:38:06.880Z,1016.1
2018-12-13T13:39:15.539Z,1016.11
2018-12-13T13:40:24.214Z,1016.14
2018-12-13T13:41:32.885Z,1016.15
2018-12-13T13:42:41.556Z,1016.11
2018-12-13T13:43:50.221Z,1016.09
2018-12-13T13:44:58.889Z,1016.15
2018-12-13T13:46:07.552Z,1016.14
2018-12-13T13:47:16.219Z,1016.15
2018-12-13T13:48:24.902Z,1016.17
2018-12-13T13:49:33.569Z,1016.11
2018-12-13T13:50:42.239Z,1016.16
2018-12-13T13:51:50.903Z,1016.15
2018-12-13T13:52:59.587Z,1016.16
2018-12-13T13:54:08.255Z,1016.18
2018-12-13T13:55:17.187Z,1016.2
2018-12-13T13:56:26.098Z,1016.21